DW0630 Weather Reports


Display with metric or nautical units.
time (UTC)temp
F
wind
direction
speed
MPH
gust
MPH
rain 1hr
in
rain 24hr
in
rain mn
in
humidity
%
barometer
mb
20180620095027 65 177 13.0 20.0 0.00 0.00 0.00 89 1020.2
20180620094524 65 186 14.0 20.0 0.00 0.00 0.00 89 1020.1
20180620094027 64 182 17.0 22.0 0.00 0.00 0.00 89 1020.1
20180620093524 64 183 13.0 20.0 0.00 0.00 0.00 90 1020.1
20180620093027 64 180 13.0 20.0 0.00 0.00 0.00 89 1020.2
20180620092524 64 193 14.0 20.0 0.00 0.00 0.00 89 1020.2
20180620092027 64 189 13.0 20.0 0.00 0.00 0.00 90 1020.2
20180620091524 64 179 14.0 20.0 0.00 0.00 0.00 90 1020.2
20180620091028 64 192 16.0 20.0 0.00 0.00 0.00 90 1020.1
20180620090524 64 179 13.0 18.0 0.00 0.00 0.00 90 1020.1
20180620090024 64 177 14.0 24.0 0.00 0.00 0.00 90 1020.2
20180620085523 63 191 18.0 24.0 0.00 0.00 0.00 90 1020.1
20180620085027 63 189 12.0 17.0 0.00 0.00 0.00 90 1020.2
20180620084524 63 187 13.0 17.0 0.00 0.00 0.00 91 1020.1
20180620084027 63 181 15.0 20.0 0.00 0.00 0.00 90 1020.2
20180620083524 63 185 14.0 18.0 0.00 0.00 0.00 90 1020.2
20180620083027 63 178 12.0 20.0 0.00 0.00 0.00 90 1020.2
20180620082524 63 187 14.0 20.0 0.00 0.00 0.00 90 1020.1
20180620082027 63 187 14.0 20.0 0.00 0.00 0.00 90 1020.2
20180620081524 63 186 11.0 16.0 0.00 0.00 0.00 90 1020.2
20180620081027 63 186 14.0 18.0 0.00 0.00 0.00 90 1020.3
20180620080523 63 192 11.0 18.0 0.00 0.00 0.00 91 1020.3
20180620080024 63 183 14.0 17.0 0.00 0.00 0.00 91 1020.3
20180620075524 63 182 12.0 15.0 0.00 0.00 0.00 91 1020.4
20180620075027 63 181 12.0 15.0 0.00 0.00 0.00 91 1020.4
20180620074523 63 186 13.0 16.0 0.00 0.00 0.00 91 1020.4
20180620074027 63 190 11.0 15.0 0.00 0.00 0.00 91 1020.3
20180620073523 63 188 8.0 13.0 0.00 0.00 0.00 91 1020.3
20180620073027 63 197 10.0 15.0 0.00 0.00 0.00 92 1020.3
20180620072523 62 203 11.0 16.0 0.00 0.00 0.00 92 1020.3
20180620072027 62 192 13.0 20.0 0.00 0.00 0.00 92 1020.2
20180620071523 61 190 14.0 20.0 0.00 0.00 0.00 92 1020.2
20180620071027 61 185 14.0 20.0 0.00 0.00 0.00 92 1020.2
20180620070524 62 180 9.0 15.0 0.00 0.00 0.00 92 1020.2
20180620070023 62 182 7.0 12.0 0.00 0.00 0.00 92 1020.2
20180620065523 62 179 6.0 12.0 0.00 0.00 0.00 92 1020.3
20180620065026 62 182 9.0 13.0 0.00 0.00 0.00 92 1020.2
20180620064524 61 180 9.0 13.0 0.00 0.00 0.00 92 1020.1
20180620064027 61 179 9.0 17.0 0.00 0.00 0.00 92 1020.1
20180620063523 61 170 10.0 13.0 0.00 0.00 0.00 92 1020.2
20180620063026 60 172 9.0 13.0 0.00 0.00 0.00 92 1020.2
20180620062523 60 178 11.0 15.0 0.00 0.00 0.00 92 1020.3
20180620062026 60 180 10.0 15.0 0.00 0.00 0.00 92 1020.3
20180620061524 60 177 9.0 14.0 0.00 0.00 0.00 92 1020.4
20180620061027 60 178 9.0 12.0 0.00 0.00 0.00 92 1020.3
20180620060524 60 184 7.0 12.0 0.00 0.00 0.00 92 1020.3
20180620060023 60 185 6.0 12.0 0.00 0.00 0.00 92 1020.4
20180620055524 60 186 7.0 12.0 0.00 0.00 0.00 92 1020.5
20180620055026 60 186 6.0 12.0 0.00 0.00 0.00 92 1020.5
20180620054523 60 186 7.0 10.0 0.00 0.00 0.00 92 1020.6
20180620054026 60 186 6.0 9.0 0.00 0.00 0.00 92 1020.6
20180620053524 60 186 6.0 9.0 0.00 0.00 0.00 92 1020.5
20180620053026 60 186 6.0 8.0 0.00 0.00 0.00 92 1020.6
20180620052523 60 186 6.0 9.0 0.00 0.00 0.00 92 1020.6
20180620052026 59 199 6.0 12.0 0.00 0.00 0.00 92 1020.5
20180620051523 59 193 8.0 12.0 0.00 0.00 0.00 92 1020.4
20180620051027 59 193 7.0 12.0 0.00 0.00 0.00 92 1020.4
20180620050523 59 190 7.0 12.0 0.00 0.00 0.00 92 1020.4
20180620050023 59 190 7.0 12.0 0.00 0.00 0.00 92 1020.4
20180620045522 59 190 6.0 10.0 0.00 0.00 0.00 92 1020.5
20180620045026 59 190 7.0 12.0 0.00 0.00 0.00 92 1020.5
20180620044522 59 206 8.0 12.0 0.00 0.00 0.00 92 1020.4
20180620044026 59 202 7.0 12.0 0.00 0.00 0.00 92 1020.5
20180620043524 59 202 6.0 9.0 0.00 0.00 0.00 92 1020.6
20180620043026 59 202 7.0 10.0 0.00 0.00 0.00 92 1020.6
20180620042523 59 202 4.0 9.0 0.00 0.00 0.00 92 1020.6
20180620042027 59 202 4.0 10.0 0.00 0.00 0.00 92 1020.6
20180620041523 59 202 6.0 12.0 0.00 0.00 0.00 92 1020.6
20180620041026 59 202 6.0 12.0 0.00 0.00 0.00 92 1020.5
20180620040523 59 202 5.0 8.0 0.00 0.00 0.00 92 1020.5
20180620040023 59 202 5.0 9.0 0.00 0.00 0.00 92 1020.4
20180620035523 59 202 4.0 7.0 0.00 0.00 0.00 92 1020.3
20180620035026 59 202 2.0 6.0 0.00 0.00 0.00 92 1020.4
20180620034523 59 202 3.0 7.0 0.00 0.00 0.00 92 1020.4
20180620034026 59 202 3.0 12.0 0.00 0.00 0.00 92 1020.4
20180620033522 59 202 7.0 12.0 0.00 0.00 0.00 92 1020.4
20180620033025 59 201 7.0 13.0 0.00 0.00 0.00 92 1020.4
20180620032523 59 198 8.0 12.0 0.00 0.00 0.00 92 1020.4
20180620032026 59 196 6.0 10.0 0.00 0.00 0.00 92 1020.4
20180620031523 59 196 8.0 13.0 0.00 0.00 0.00 92 1020.5
20180620031025 59 195 9.0 12.0 0.00 0.00 0.00 92 1020.5
20180620030522 59 191 3.0 10.0 0.00 0.00 0.00 92 1020.5
20180620030023 59 191 5.0 12.0 0.00 0.00 0.00 92 1020.5
20180620025523 59 190 3.0 6.0 0.00 0.00 0.00 92 1020.4
20180620025026 59 190 3.0 10.0 0.00 0.00 0.00 92 1020.4
20180620024523 59 190 6.0 12.0 0.00 0.00 0.00 92 1020.3
20180620024026 59 190 8.0 13.0 0.00 0.00 0.00 92 1020.5
20180620023522 59 190 6.0 12.0 0.00 0.00 0.00 92 1020.5
20180620023026 59 190 6.0 12.0 0.00 0.00 0.00 92 1020.5
20180620022522 59 191 7.0 12.0 0.00 0.00 0.00 92 1020.6
20180620022026 59 190 9.0 12.0 0.00 0.00 0.00 92 1020.6
20180620021522 59 190 6.0 12.0 0.00 0.00 0.00 92 1020.7
20180620021026 59 190 9.0 13.0 0.00 0.00 0.00 92 1020.6
20180620020522 59 190 9.0 12.0 0.00 0.00 0.00 92 1020.6
20180620020022 59 191 8.0 12.0 0.00 0.00 0.00 92 1020.6
20180620015522 59 192 9.0 12.0 0.00 0.00 0.00 92 1020.6
20180620015025 59 192 7.0 10.0 0.00 0.00 0.00 92 1020.6
20180620014522 60 192 7.0 12.0 0.00 0.00 0.00 92 1020.6
20180620014025 60 192 6.0 12.0 0.00 0.00 0.00 92 1020.6
20180620013522 60 192 9.0 12.0 0.00 0.00 0.00 92 1020.5
20180620013028 60 192 10.0 12.0 0.00 0.00 0.00 92 1020.5
20180620012523 60 192 7.0 12.0 0.00 0.00 0.00 92 1020.6
20180620012025 60 192 7.0 9.0 0.00 0.00 0.00 92 1020.6
20180620011522 60 192 6.0 7.0 0.00 0.00 0.00 92 1020.6
20180620011025 60 192 5.0 8.0 0.00 0.00 0.00 92 1020.7
20180620010523 60 192 5.0 8.0 0.00 0.00 0.00 92 1020.8
20180620010022 60 192 6.0 10.0 0.00 0.00 0.00 92 1020.9
20180620005522 61 192 7.0 10.0 0.00 0.00 0.00 92 1020.9
20180620005025 61 192 7.0 10.0 0.00 0.00 0.00 92 1021.0
20180620004522 61 192 7.0 10.0 0.00 0.00 0.00 92 1021.1
20180620004025 61 192 7.0 10.0 0.00 0.00 0.00 92 1021.0
20180620003522 61 192 6.0 9.0 0.00 0.00 0.00 92 1021.0
20180620003025 61 192 5.0 9.0 0.00 0.00 0.00 92 1021.0
20180620002522 61 192 8.0 10.0 0.00 0.00 0.00 92 1021.0
20180620002025 61 192 7.0 12.0 0.00 0.00 0.00 92 1021.1
20180620001522 61 192 9.0 12.0 0.00 0.00 0.00 92 1021.1
20180620001025 61 192 7.0 10.0 0.00 0.00 0.00 92 1021.2
20180620000522 61 192 7.0 9.0 0.00 0.00 0.00 92 1021.3
20180620000022 61 192 6.0 9.0 0.00 0.00 0.00 92 1021.3
20180619235522 61 192 7.0 9.0 0.00 0.00 0.00 92 1021.4
20180619235025 61 192 6.0 9.0 0.00 0.00 0.00 92 1021.4
20180619234522 61 192 6.0 9.0 0.00 0.00 0.00 92 1021.3
20180619234025 61 192 6.0 9.0 0.00 0.00 0.00 92 1021.4
20180619233522 61 192 6.0 9.0 0.00 0.00 0.00 92 1021.4
20180619233024 61 192 5.0 9.0 0.00 0.00 0.00 92 1021.4
20180619232521 61 192 5.0 8.0 0.00 0.00 0.00 91 1021.5
20180619232025 61 192 5.0 6.0 0.00 0.00 0.00 91 1021.5
20180619231521 61 192 5.0 6.0 0.00 0.00 0.00 91 1021.3
20180619231025 61 192 5.0 6.0 0.00 0.00 0.00 91 1021.3
20180619230522 61 192 6.0 7.0 0.00 0.00 0.00 91 1021.3
20180619230021 61 192 6.0 8.0 0.00 0.00 0.00 91 1021.2
20180619225521 61 192 6.0 8.0 0.00 0.00 0.00 91 1021.3
20180619225024 61 192 6.0 7.0 0.00 0.00 0.00 90 1021.4
20180619224522 61 192 6.0 7.0 0.00 0.00 0.00 90 1021.5
20180619224025 61 192 5.0 6.0 0.00 0.00 0.00 90 1021.5
20180619223522 62 192 3.0 6.0 0.00 0.00 0.00 90 1021.5
20180619223025 62 192 5.0 7.0 0.00 0.00 0.00 92 1021.6
20180619222521 62 192 5.0 8.0 0.00 0.00 0.00 90 1021.6
20180619222024 62 192 5.0 8.0 0.00 0.00 0.00 90 1021.7
20180619221522 62 192 6.0 10.0 0.00 0.00 0.00 90 1021.7
20180619221025 62 192 6.0 10.0 0.00 0.00 0.00 90 1021.8
20180619220521 62 192 6.0 10.0 0.00 0.00 0.00 90 1021.8
20180619220022 62 192 3.0 8.0 0.00 0.00 0.00 90 1021.9
20180619215521 62 192 3.0 5.0 0.00 0.00 0.00 90 1022.0
20180619215024 62 192 1.0 5.0 0.00 0.00 0.00 90 1022.0
20180619214521 62 192 2.0 5.0 0.00 0.00 0.00 90 1022.0
20180619214024 62 192 3.0 5.0 0.00 0.00 0.00 90 1021.9
20180619213522 62 192 4.0 6.0 0.00 0.00 0.00 90 1021.9
20180619213026 62 192 1.0 6.0 0.00 0.00 0.00 89 1021.9
20180619212521 62 192 0.0 0.0 0.00 0.00 0.00 89 1022.0
20180619212025 62 192 0.0 3.0 0.00 0.00 0.00 89 1022.0
20180619211521 62 192 3.0 3.0 0.00 0.00 0.00 89 1022.0
20180619211024 62 192 4.0 6.0 0.00 0.00 0.00 89 1022.0
20180619210522 62 192 0.0 0.0 0.00 0.00 0.00 88 1021.8
20180619210021 63 192 0.0 5.0 0.00 0.00 0.00 88 1021.9
20180619205521 63 192 2.0 5.0 0.00 0.00 0.00 88 1021.9
20180619205024 63 192 0.0 0.0 0.00 0.00 0.00 87 1021.8
20180619204521 64 192 0.0 0.0 0.00 0.00 0.00 87 1021.8
20180619204024 64 192 0.0 2.0 0.00 0.00 0.00 87 1021.7
20180619203521 64 192 0.0 2.0 0.00 0.00 0.00 87 1021.6
20180619203024 64 192 0.0 0.0 0.00 0.00 0.00 87 1021.6
20180619202521 64 192 0.0 0.0 0.00 0.00 0.00 87 1021.5
20180619202023 65 192 0.0 1.0 0.00 0.00 0.00 87 1021.6
20180619201521 65 192 0.0 1.0 0.00 0.00 0.00 87 1021.6
20180619201024 65 192 0.0 0.0 0.00 0.00 0.00 87 1021.6
20180619200521 65 192 0.0 0.0 0.00 0.00 0.00 87 1021.7
20180619200021 65 192 0.0 0.0 0.00 0.00 0.00 87 1021.6
20180619195521 65 192 0.0 0.0 0.00 0.00 0.00 86 1021.6
20180619195023 65 192 2.0 7.0 0.00 0.00 0.00 86 1021.4
20180619194521 66 192 3.0 9.0 0.00 0.00 0.00 86 1021.4
20180619194024 66 192 6.0 10.0 0.00 0.00 0.00 86 1021.4
20180619193521 66 192 5.0 10.0 0.00 0.00 0.00 86 1021.4
20180619193025 66 192 7.0 12.0 0.00 0.00 0.00 85 1021.4
20180619192520 67 192 4.0 9.0 0.00 0.00 0.00 85 1021.4
20180619192023 67 192 7.0 12.0 0.00 0.00 0.00 85 1021.4
20180619191521 67 192 5.0 9.0 0.00 0.00 0.00 86 1021.5
20180619191023 67 192 6.0 10.0 0.00 0.00 0.00 85 1021.5
20180619190520 67 192 5.0 12.0 0.00 0.00 0.00 85 1021.5
20180619190020 67 192 3.0 12.0 0.00 0.00 0.00 85 1021.5
20180619185520 67 192 6.0 12.0 0.00 0.00 0.00 85 1021.5
20180619185024 67 191 9.0 13.0 0.00 0.00 0.00 85 1021.5
20180619184520 67 189 7.0 12.0 0.00 0.00 0.00 85 1021.5
20180619184024 67 189 9.0 12.0 0.00 0.00 0.00 85 1021.5
20180619183520 67 189 8.0 12.0 0.00 0.00 0.00 85 1021.6
20180619183023 67 189 7.0 14.0 0.00 0.00 0.00 85 1021.6
20180619182521 67 187 9.0 14.0 0.00 0.00 0.00 85 1021.6
20180619182024 67 186 10.0 13.0 0.00 0.00 0.00 85 1021.6
20180619181520 67 186 10.0 14.0 0.00 0.00 0.00 85 1021.6
20180619181024 67 186 9.0 15.0 0.00 0.00 0.00 85 1021.7
20180619180520 67 192 10.0 15.0 0.00 0.00 0.00 85 1021.7
20180619180020 68 190 10.0 15.0 0.00 0.00 0.00 85 1021.7
20180619175520 68 192 11.0 15.0 0.00 0.00 0.00 85 1021.8
20180619175023 68 193 11.0 16.0 0.00 0.00 0.00 84 1021.8
20180619174520 68 187 13.0 17.0 0.00 0.00 0.00 84 1021.7
20180619174023 68 190 12.0 16.0 0.00 0.00 0.00 85 1021.8
20180619173520 68 195 13.0 18.0 0.00 0.00 0.00 85 1021.8
20180619173023 68 188 12.0 15.0 0.00 0.00 0.00 85 1021.8
20180619172519 68 194 10.0 15.0 0.00 0.00 0.00 85 1021.8
20180619172023 68 192 12.0 15.0 0.00 0.00 0.00 85 1021.8
20180619171520 68 191 12.0 16.0 0.00 0.00 0.00 84 1021.8
20180619171023 68 192 10.0 15.0 0.00 0.00 0.00 85 1021.8
20180619170520 68 197 13.0 17.0 0.00 0.00 0.00 84 1021.8
20180619170020 68 198 14.0 18.0 0.00 0.00 0.00 84 1021.8
20180619165520 68 186 13.0 20.0 0.00 0.00 0.00 84 1021.7
20180619165023 68 184 16.0 20.0 0.00 0.00 0.00 84 1021.7
20180619164520 69 188 14.0 20.0 0.00 0.00 0.00 84 1021.8
20180619164023 69 183 12.0 20.0 0.00 0.00 0.00 84 1021.7
20180619163520 69 192 12.0 17.0 0.00 0.00 0.00 85 1021.8
20180619163025 69 188 14.0 18.0 0.00 0.00 0.00 84 1021.8
20180619162520 69 185 14.0 18.0 0.00 0.00 0.00 84 1021.9
20180619162023 69 190 13.0 20.0 0.00 0.00 0.00 84 1021.9
20180619161520 69 190 14.0 20.0 0.00 0.00 0.00 84 1021.9
20180619161022 69 194 17.0 20.0 0.00 0.00 0.00 83 1021.9
20180619160520 69 189 14.0 20.0 0.00 0.00 0.00 84 1022.0
20180619160020 69 193 13.0 20.0 0.00 0.00 0.00 84 1022.1
20180619155520 69 189 14.0 20.0 0.00 0.00 0.00 83 1022.0
20180619155022 69 200 14.0 20.0 0.00 0.00 0.00 83 1022.0
20180619154520 69 195 16.0 20.0 0.00 0.00 0.00 83 1021.9
20180619154023 69 186 12.0 17.0 0.00 0.00 0.00 83 1022.0
20180619153521 69 192 15.0 18.0 0.00 0.00 0.00 83 1022.1
20180619153022 70 195 12.0 16.0 0.00 0.00 0.00 83 1022.1
20180619152520 70 202 15.0 20.0 0.00 0.00 0.00 82 1022.1
20180619152023 70 183 12.0 20.0 0.00 0.00 0.00 83 1022.1
20180619151519 70 196 11.0 16.0 0.00 0.00 0.00 82 1022.1
20180619151023 70 198 13.0 17.0 0.00 0.00 0.00 82 1022.1
20180619150520 70 205 10.0 14.0 0.00 0.00 0.00 82 1022.2
20180619150019 70 194 11.0 16.0 0.00 0.00 0.00 82 1022.2
20180619145520 70 197 10.0 14.0 0.00 0.00 0.00 83 1022.2
20180619145022 70 197 10.0 18.0 0.00 0.00 0.00 82 1022.1
20180619144520 70 191 16.0 20.0 0.00 0.00 0.00 82 1022.2
20180619144022 70 198 14.0 21.0 0.00 0.00 0.00 82 1022.3
20180619143519 70 191 14.0 22.0 0.00 0.00 0.00 84 1022.3
20180619143022 69 187 13.0 17.0 0.00 0.00 0.00 84 1022.3
20180619142519 69 186 11.0 15.0 0.00 0.00 0.00 84 1022.4
20180619142022 69 189 12.0 16.0 0.00 0.00 0.00 83 1022.3
20180619141520 69 196 13.0 18.0 0.00 0.00 0.00 83 1022.4
20180619141023 69 192 13.0 20.0 0.00 0.00 0.00 84 1022.3
20180619140520 69 192 14.0 18.0 0.00 0.00 0.00 85 1022.4
20180619140019 68 193 10.0 16.0 0.00 0.00 0.00 85 1022.5
20180619135520 68 193 10.0 14.0 0.00 0.00 0.00 85 1022.6
20180619135022 68 192 9.0 17.0 0.00 0.00 0.00 84 1022.6
20180619134519 68 192 10.0 14.0 0.00 0.00 0.00 84 1022.5
20180619134022 68 187 13.0 16.0 0.00 0.00 0.00 84 1022.5
20180619133520 68 186 13.0 17.0 0.00 0.00 0.00 84 1022.5
20180619133023 69 181 13.0 17.0 0.00 0.00 0.00 84 1022.4
20180619132519 69 195 12.0 15.0 0.00 0.00 0.00 84 1022.3
20180619132022 68 192 10.0 15.0 0.00 0.00 0.00 84 1022.4
20180619131519 68 187 7.0 15.0 0.00 0.00 0.00 83 1022.4
20180619131022 69 186 12.0 16.0 0.00 0.00 0.00 83 1022.5
20180619130519 69 188 11.0 14.0 0.00 0.00 0.00 83 1022.5
20180619130020 69 186 12.0 16.0 0.00 0.00 0.00 83 1022.4
20180619125519 69 187 12.0 16.0 0.00 0.00 0.00 83 1022.4
20180619125022 69 187 10.0 14.0 0.00 0.00 0.00 83 1022.4
20180619124519 69 189 11.0 14.0 0.00 0.00 0.00 84 1022.5
20180619124022 69 184 11.0 15.0 0.00 0.00 0.00 85 1022.5
20180619123518 69 182 11.0 15.0 0.00 0.00 0.00 84 1022.5
20180619123021 69 184 13.0 16.0 0.00 0.00 0.00 84 1022.6
20180619122519 69 187 12.0 16.0 0.00 0.00 0.00 84 1022.6
20180619122021 69 196 12.0 20.0 0.00 0.00 0.00 84 1022.6
20180619121519 69 183 14.0 20.0 0.00 0.00 0.00 84 1022.6
20180619121022 68 194 13.0 17.0 0.00 0.00 0.00 85 1022.6
20180619120518 68 196 11.0 16.0 0.00 0.00 0.00 86 1022.7
20180619120019 68 191 13.0 17.0 0.00 0.00 0.00 85 1022.8
20180619115519 67 194 12.0 16.0 0.00 0.00 0.00 85 1022.8
20180619115021 67 196 13.0 17.0 0.00 0.00 0.00 85 1022.9
20180619114519 67 182 15.0 17.0 0.00 0.00 0.00 85 1022.8
20180619114022 67 181 13.0 17.0 0.00 0.00 0.00 85 1022.8
20180619113518 67 186 13.0 17.0 0.00 0.00 0.00 85 1022.7
20180619113022 67 179 16.0 21.0 0.00 0.00 0.00 85 1022.7
20180619112519 67 186 13.0 18.0 0.00 0.00 0.00 86 1022.8
20180619112021 67 191 16.0 22.0 0.00 0.00 0.00 85 1022.8
20180619111519 67 187 15.0 20.0 0.00 0.00 0.00 85 1022.9
20180619111021 67 200 12.0 18.0 0.00 0.00 0.00 85 1022.9
20180619110519 67 190 14.0 20.0 0.00 0.00 0.00 85 1022.9
20180619110019 67 203 13.0 18.0 0.00 0.00 0.00 85 1022.9
20180619105518 68 201 12.0 17.0 0.00 0.00 0.00 84 1022.9
20180619105022 68 186 10.0 17.0 0.00 0.00 0.00 86 1022.9
20180619104518 68 186 12.0 16.0 0.00 0.00 0.00 84 1022.9
20180619104021 68 185 14.0 20.0 0.00 0.01 0.00 85 1022.8
20180619103519 68 182 12.0 17.0 0.00 0.01 0.00 84 1022.9
20180619103022 68 198 10.0 14.0 0.00 0.01 0.00 84 1022.8
20180619102519 68 208 9.0 12.0 0.00 0.01 0.00 85 1022.8
20180619102021 68 209 7.0 13.0 0.00 0.01 0.00 86 1022.8
20180619101519 68 209 9.0 12.0 0.00 0.01 0.00 86 1022.9
20180619101021 67 215 7.0 12.0 0.00 0.01 0.00 86 1022.8
20180619100518 67 218 10.0 12.0 0.00 0.01 0.00 85 1022.8
20180619100019 67 228 10.0 12.0 0.00 0.01 0.00 85 1022.8
20180619095518 67 234 8.0 12.0 0.00 0.01 0.00 85 1022.8